Perry, Utah
Current Conditions -  °F | °C
As of 12:55 PM on Thursday 30 Oct 2014 (Local Time) from KBMC Reporting Station
Clear Clear  
Wind Chill: 60°   Ceiling: Unl
Heat Index: 60°   Visibility: 10mi
Dew Point: 31°   Wind: 0mph
Humidity: 32%   Direction: NA
Pressure: 30.25"   Gusts: NA
Location:  41.4833°N, 112.095°W
Report Text: KBMC 301855Z AUTO 00000KT 10SM CLR 16/M01 A3025 RMK AO1 T01581008
Loading
Personal Weather Stations






























Interactive Weather Map New forecast layout! Learn more

10-Day Weather Forecast

Advertisements
Track Severe Weather on mobile